createdAt,value
2018-12-16T00:00:11.194Z,24.40
2018-12-16T00:02:42.790Z,17.67
2018-12-16T00:05:12.996Z,22.57
2018-12-16T00:07:40.836Z,22.93
2018-12-16T00:10:08.516Z,21.23
2018-12-16T00:12:36.077Z,22.43
2018-12-16T00:15:03.746Z,19.37
2018-12-16T00:17:31.309Z,19.27
2018-12-16T00:19:58.877Z,23.67
2018-12-16T00:22:29.850Z,17.53
2018-12-16T00:24:56.962Z,17.80
2018-12-16T00:27:26.256Z,18.17
2018-12-16T00:29:53.806Z,20.30
2018-12-16T00:32:21.374Z,16.70
2018-12-16T00:34:48.936Z,18.97
2018-12-16T00:37:16.499Z,20.67
2018-12-16T00:39:44.051Z,19.23
2018-12-16T00:42:11.654Z,20.20
2018-12-16T00:44:39.547Z,18.40
2018-12-16T00:47:07.110Z,18.10
2018-12-16T00:49:35.696Z,16.90
2018-12-16T00:52:03.354Z,17.97
2018-12-16T00:54:30.910Z,23.83
2018-12-16T00:56:58.477Z,19.20
2018-12-16T00:59:26.267Z,18.00
2018-12-16T01:01:53.973Z,23.37
2018-12-16T01:04:21.802Z,21.40
2018-12-16T01:06:50.382Z,17.33
2018-12-16T01:09:19.894Z,16.30
2018-12-16T01:11:47.501Z,19.23
2018-12-16T01:14:15.066Z,16.03
2018-12-16T01:16:42.628Z,18.40
2018-12-16T01:19:10.194Z,19.13
2018-12-16T01:21:37.824Z,16.43
2018-12-16T01:24:05.506Z,15.93
2018-12-16T01:26:33.065Z,21.60
2018-12-16T01:29:00.630Z,16.03
2018-12-16T01:31:28.198Z,23.03
2018-12-16T01:33:55.752Z,15.87
2018-12-16T01:36:23.320Z,16.87
2018-12-16T01:38:51.483Z,18.73
2018-12-16T01:41:20.957Z,18.00
2018-12-16T01:43:50.694Z,20.97
2018-12-16T01:46:18.261Z,14.87
2018-12-16T01:48:45.815Z,19.00
2018-12-16T01:51:14.047Z,16.23
2018-12-16T01:53:44.580Z,19.57
2018-12-16T01:56:12.858Z,16.60
2018-12-16T01:58:40.410Z,19.43
2018-12-16T02:01:07.980Z,15.27
2018-12-16T02:03:35.550Z,14.97
2018-12-16T02:06:03.918Z,15.30
2018-12-16T02:08:34.385Z,16.07
2018-12-16T02:11:02.274Z,14.23
2018-12-16T02:13:29.845Z,13.40
2018-12-16T02:15:58.499Z,15.47
2018-12-16T02:18:27.129Z,17.20
2018-12-16T02:20:56.789Z,16.73
2018-12-16T02:23:25.754Z,15.83
2018-12-16T02:25:53.315Z,15.33
2018-12-16T02:28:20.870Z,19.20
2018-12-16T02:30:48.426Z,15.50
2018-12-16T02:33:15.982Z,13.40
2018-12-16T02:35:43.658Z,15.57
2018-12-16T02:38:11.318Z,14.83
2018-12-16T02:40:38.982Z,13.20
2018-12-16T02:43:07.728Z,20.83
2018-12-16T02:45:35.280Z,15.70
2018-12-16T02:48:02.914Z,17.73
2018-12-16T02:50:30.507Z,15.67
2018-12-16T02:53:04.521Z,16.03
2018-12-16T02:55:27.668Z,16.13
2018-12-16T02:57:55.297Z,16.63
2018-12-16T03:00:22.864Z,13.40
2018-12-16T03:02:50.415Z,13.80
2018-12-16T03:05:17.985Z,13.27
2018-12-16T03:07:47.151Z,11.93
2018-12-16T03:10:14.710Z,16.47
2018-12-16T03:12:42.274Z,13.23
2018-12-16T03:15:09.942Z,16.87
2018-12-16T03:17:37.504Z,19.83
2018-12-16T03:20:07.324Z,17.93
2018-12-16T03:22:34.926Z,18.17
2018-12-16T03:25:02.490Z,16.30
2018-12-16T03:27:30.214Z,16.17
2018-12-16T03:29:57.813Z,16.23
2018-12-16T03:32:25.377Z,14.70
2018-12-16T03:34:53.083Z,13.87
2018-12-16T03:37:22.015Z,18.07
2018-12-16T03:39:51.460Z,16.63
2018-12-16T03:42:19.542Z,21.13
2018-12-16T03:44:47.114Z,16.23
2018-12-16T03:47:14.680Z,15.77
2018-12-16T03:49:42.240Z,17.97
2018-12-16T03:52:09.811Z,19.83
2018-12-16T03:54:37.538Z,18.93
2018-12-16T03:57:06.947Z,16.10
2018-12-16T03:59:34.682Z,16.27
2018-12-16T04:02:02.253Z,18.13
2018-12-16T04:04:29.927Z,12.53
2018-12-16T04:06:57.493Z,17.13
2018-12-16T04:09:25.052Z,22.33
2018-12-16T04:11:52.933Z,15.70
2018-12-16T04:14:21.680Z,15.77
2018-12-16T04:16:50.670Z,20.90
2018-12-16T04:19:18.517Z,21.57
2018-12-16T04:21:46.121Z,17.43
2018-12-16T04:24:13.689Z,19.07
2018-12-16T04:26:41.257Z,17.57
2018-12-16T04:29:08.825Z,18.33
2018-12-16T04:31:36.386Z,19.03
2018-12-16T04:34:03.966Z,17.20
2018-12-16T04:36:31.517Z,17.73
2018-12-16T04:38:59.156Z,16.97
2018-12-16T04:41:26.768Z,19.93
2018-12-16T04:43:54.334Z,18.00
2018-12-16T04:46:23.349Z,16.93
2018-12-16T04:48:52.588Z,21.50
2018-12-16T04:51:20.878Z,19.70
2018-12-16T04:53:48.453Z,18.20
2018-12-16T04:56:16.014Z,17.30
2018-12-16T04:58:43.577Z,16.13
2018-12-16T05:01:11.181Z,16.97
2018-12-16T05:03:38.747Z,17.47
2018-12-16T05:06:06.323Z,20.97
2018-12-16T05:08:33.886Z,18.23
2018-12-16T05:11:01.508Z,16.40
2018-12-16T05:13:29.145Z,18.77
2018-12-16T05:15:56.712Z,21.10
2018-12-16T05:18:24.428Z,20.83
2018-12-16T05:20:51.998Z,21.90
2018-12-16T05:23:19.561Z,19.27
2018-12-16T05:25:47.257Z,20.47
2018-12-16T05:28:15.439Z,18.77
2018-12-16T05:30:44.452Z,15.47
2018-12-16T05:33:13.335Z,25.20
2018-12-16T05:35:40.895Z,21.43
2018-12-16T05:38:08.481Z,20.93
2018-12-16T05:40:36.066Z,22.20
2018-12-16T05:43:03.634Z,24.47
2018-12-16T05:45:31.191Z,28.40
2018-12-16T05:47:58.758Z,25.40
2018-12-16T05:50:26.319Z,23.03
2018-12-16T05:52:53.887Z,23.67
2018-12-16T05:55:21.449Z,26.17
2018-12-16T05:57:49.016Z,24.80
2018-12-16T06:00:16.576Z,24.47
2018-12-16T06:02:45.697Z,23.33
2018-12-16T06:05:14.709Z,27.47
2018-12-16T06:07:42.932Z,23.30
2018-12-16T06:10:10.577Z,22.60
2018-12-16T06:12:38.231Z,25.50
2018-12-16T06:15:06.027Z,24.03
2018-12-16T06:17:33.675Z,30.57
2018-12-16T06:20:01.248Z,22.07
2018-12-16T06:22:28.821Z,23.03
2018-12-16T06:24:56.383Z,25.27
2018-12-16T06:27:23.944Z,21.20
2018-12-16T06:29:51.918Z,22.30
2018-12-16T06:32:19.489Z,22.10
2018-12-16T06:34:47.160Z,28.10
2018-12-16T06:37:14.718Z,28.17
2018-12-16T06:39:42.693Z,21.13
2018-12-16T06:42:12.503Z,24.30
2018-12-16T06:44:40.933Z,26.87
2018-12-16T06:47:08.504Z,26.80
2018-12-16T06:49:36.070Z,28.83
2018-12-16T06:52:03.642Z,27.67
2018-12-16T06:54:31.195Z,28.93
2018-12-16T06:56:58.775Z,23.37
2018-12-16T06:59:26.351Z,28.47
2018-12-16T07:01:55.714Z,32.30
2018-12-16T07:04:23.513Z,21.90
2018-12-16T07:06:51.085Z,29.40
2018-12-16T07:09:18.665Z,27.70
2018-12-16T07:11:46.226Z,27.33
2018-12-16T07:14:13.786Z,31.60
2018-12-16T07:16:41.349Z,28.67
2018-12-16T07:19:08.933Z,29.30
2018-12-16T07:21:36.512Z,28.67
2018-12-16T07:24:09.146Z,33.20
2018-12-16T07:26:35.578Z,26.17
2018-12-16T07:29:03.812Z,31.50
2018-12-16T07:31:31.379Z,34.43
2018-12-16T07:33:58.931Z,28.03
2018-12-16T07:36:26.498Z,28.70
2018-12-16T07:38:54.097Z,26.90
2018-12-16T07:41:21.670Z,24.20
2018-12-16T07:43:49.300Z,23.90
2018-12-16T07:46:16.892Z,29.43
2018-12-16T07:48:44.563Z,29.70
2018-12-16T07:51:12.281Z,23.60
2018-12-16T07:53:39.859Z,25.50
2018-12-16T07:56:07.466Z,26.20
2018-12-16T07:58:36.118Z,31.07
2018-12-16T08:01:06.387Z,31.93
2018-12-16T08:03:34.355Z,28.47
2018-12-16T08:06:02.267Z,24.13
2018-12-16T08:08:29.827Z,25.57
2018-12-16T08:10:57.496Z,29.50
2018-12-16T08:13:25.055Z,25.40
2018-12-16T08:15:52.630Z,21.87
2018-12-16T08:18:20.187Z,25.83
2018-12-16T08:20:47.749Z,28.97
2018-12-16T08:23:15.312Z,24.03
2018-12-16T08:25:42.912Z,27.83
2018-12-16T08:28:10.598Z,24.43
2018-12-16T08:30:39.068Z,31.17
2018-12-16T08:33:07.941Z,23.30
2018-12-16T08:35:36.807Z,27.87
2018-12-16T08:38:04.382Z,25.53
2018-12-16T08:40:31.944Z,23.47
2018-12-16T08:42:59.509Z,25.83
2018-12-16T08:45:27.200Z,25.80
2018-12-16T08:47:54.790Z,27.97
2018-12-16T08:50:22.380Z,28.47
2018-12-16T08:52:50.049Z,23.63
2018-12-16T08:55:17.617Z,23.23
2018-12-16T08:57:45.196Z,26.63
2018-12-16T09:00:12.951Z,19.43
2018-12-16T09:02:40.508Z,25.60
2018-12-16T09:05:08.104Z,24.67
2018-12-16T09:07:37.424Z,21.73
2018-12-16T09:10:08.286Z,24.27
2018-12-16T09:12:35.977Z,22.73
2018-12-16T09:15:05.465Z,26.20
2018-12-16T09:17:33.133Z,25.73
2018-12-16T09:20:00.726Z,23.97
2018-12-16T09:22:28.380Z,24.87
2018-12-16T09:24:56.088Z,28.80
2018-12-16T09:27:23.664Z,26.50
2018-12-16T09:29:51.243Z,22.33
2018-12-16T09:32:18.925Z,23.27
2018-12-16T09:34:46.474Z,21.00
2018-12-16T09:37:14.044Z,22.43
2018-12-16T09:39:41.617Z,26.43
2018-12-16T09:42:09.178Z,26.40
2018-12-16T09:44:37.058Z,24.07
2018-12-16T09:47:04.738Z,23.30
2018-12-16T09:49:32.412Z,17.83
2018-12-16T09:52:00.686Z,29.37
2018-12-16T09:54:30.450Z,26.20
2018-12-16T09:56:59.307Z,30.87
2018-12-16T09:59:26.998Z,25.87
2018-12-16T10:01:54.552Z,23.43
2018-12-16T10:04:22.128Z,30.60
2018-12-16T10:06:49.838Z,27.43
2018-12-16T10:09:17.403Z,24.30
2018-12-16T10:11:44.959Z,24.83
2018-12-16T10:14:12.562Z,23.70
2018-12-16T10:16:40.179Z,32.70
2018-12-16T10:19:07.982Z,44.93
2018-12-16T10:21:35.725Z,27.70
2018-12-16T10:24:03.590Z,34.97
2018-12-16T10:26:33.906Z,29.53
2018-12-16T10:29:02.099Z,30.37
2018-12-16T10:31:32.190Z,33.83
2018-12-16T10:33:59.915Z,24.60
2018-12-16T10:36:27.474Z,21.77
2018-12-16T10:38:55.078Z,28.07
2018-12-16T10:41:22.635Z,28.07
2018-12-16T10:43:50.323Z,30.87
2018-12-16T10:46:17.882Z,27.43
2018-12-16T10:48:45.479Z,29.87
2018-12-16T10:51:13.466Z,30.57
2018-12-16T10:53:42.674Z,34.57
2018-12-16T10:56:12.009Z,25.50
2018-12-16T10:58:39.947Z,27.30
2018-12-16T11:01:13.162Z,22.13
2018-12-16T11:03:40.718Z,26.03
2018-12-16T11:06:08.298Z,25.07
2018-12-16T11:08:35.870Z,29.97
2018-12-16T11:11:03.436Z,24.40
2018-12-16T11:13:31.470Z,21.07
2018-12-16T11:16:00.763Z,26.33
2018-12-16T11:18:29.680Z,19.57
2018-12-16T11:20:59.477Z,23.70
2018-12-16T11:23:27.218Z,25.00
2018-12-16T11:25:54.796Z,30.40
2018-12-16T11:28:24.018Z,22.83
2018-12-16T11:30:53.184Z,27.27
2018-12-16T11:33:20.773Z,19.93
2018-12-16T11:35:48.409Z,24.23
2018-12-16T11:38:16.044Z,26.63
2018-12-16T11:40:43.704Z,26.27
2018-12-16T11:43:11.280Z,23.20
2018-12-16T11:45:38.869Z,26.77
2018-12-16T11:48:06.471Z,23.73
2018-12-16T11:50:34.028Z,23.97
2018-12-16T11:53:01.582Z,25.63
2018-12-16T11:55:29.728Z,29.27
2018-12-16T11:57:58.754Z,26.10
2018-12-16T12:00:27.526Z,24.20
2018-12-16T12:02:55.086Z,25.70
2018-12-16T12:05:22.652Z,23.03
2018-12-16T12:07:50.229Z,21.70
2018-12-16T12:10:17.794Z,24.67
2018-12-16T12:12:45.460Z,23.70
2018-12-16T12:15:13.018Z,21.20
2018-12-16T12:17:40.584Z,25.23
2018-12-16T12:20:08.366Z,23.60
2018-12-16T12:22:35.922Z,22.70
2018-12-16T12:25:04.306Z,22.77
2018-12-16T12:27:31.893Z,23.37
2018-12-16T12:29:59.582Z,24.43
2018-12-16T12:32:28.259Z,24.63
2018-12-16T12:34:56.796Z,20.90
2018-12-16T12:37:26.042Z,21.97
2018-12-16T12:39:53.966Z,25.47
2018-12-16T12:42:21.573Z,28.47
2018-12-16T12:44:49.137Z,22.10
2018-12-16T12:47:16.709Z,25.10
2018-12-16T12:49:45.138Z,19.80
2018-12-16T12:52:12.968Z,25.80
2018-12-16T12:54:41.492Z,23.10
2018-12-16T12:57:09.057Z,25.57
2018-12-16T12:59:36.663Z,24.93
2018-12-16T13:02:04.339Z,22.87
2018-12-16T13:04:31.888Z,24.23
2018-12-16T13:06:59.498Z,23.03
2018-12-16T13:09:27.058Z,22.60
2018-12-16T13:11:54.623Z,24.87
2018-12-16T13:14:22.607Z,22.57
2018-12-16T13:16:50.741Z,26.47
2018-12-16T13:19:19.586Z,18.00
2018-12-16T13:21:48.471Z,23.03
2018-12-16T13:24:17.377Z,22.87
2018-12-16T13:26:45.302Z,24.63
2018-12-16T13:29:12.864Z,21.40
2018-12-16T13:31:40.423Z,23.37
2018-12-16T13:34:08.097Z,23.20
2018-12-16T13:36:35.846Z,22.30
2018-12-16T13:39:05.523Z,25.50
2018-12-16T13:41:33.622Z,26.13
2018-12-16T13:44:03.066Z,29.50
2018-12-16T13:46:32.004Z,35.70
2018-12-16T13:48:59.550Z,22.40
2018-12-16T13:51:27.121Z,25.13
2018-12-16T13:53:54.680Z,31.73
2018-12-16T13:56:22.242Z,32.67
2018-12-16T13:58:49.791Z,19.60
2018-12-16T14:01:17.348Z,32.57
2018-12-16T14:03:44.905Z,21.33
2018-12-16T14:06:12.461Z,23.87
2018-12-16T14:08:40.026Z,20.20
2018-12-16T14:11:07.601Z,49.93
2018-12-16T14:13:35.148Z,45.70
2018-12-16T14:16:02.694Z,56.63
2018-12-16T14:18:30.258Z,36.60
2018-12-16T14:20:57.805Z,36.43
2018-12-16T14:23:26.477Z,32.60
2018-12-16T14:25:55.253Z,31.37
2018-12-16T14:28:25.890Z,32.00
2018-12-16T14:30:54.330Z,31.53
2018-12-16T14:33:23.924Z,22.07
2018-12-16T14:35:51.524Z,15.70
2018-12-16T14:38:19.478Z,20.00
2018-12-16T14:40:47.084Z,19.23
2018-12-16T14:43:15.419Z,14.63
2018-12-16T14:45:43.016Z,23.90
2018-12-16T14:48:11.914Z,19.70
2018-12-16T14:50:39.539Z,15.17
2018-12-16T14:53:07.131Z,14.17
2018-12-16T14:55:34.697Z,18.07
2018-12-16T14:58:02.266Z,18.93
2018-12-16T15:00:30.236Z,18.40
2018-12-16T15:02:57.813Z,16.10
2018-12-16T15:05:25.367Z,18.83
2018-12-16T15:07:52.924Z,18.40
2018-12-16T15:10:20.593Z,15.67
2018-12-16T15:12:48.145Z,18.70
2018-12-16T15:15:16.435Z,20.70
2018-12-16T15:17:44.265Z,17.90
2018-12-16T15:20:11.892Z,18.37
2018-12-16T15:22:40.332Z,17.50
2018-12-16T15:25:08.015Z,17.77
2018-12-16T15:27:35.613Z,15.30
2018-12-16T15:30:04.645Z,22.77
2018-12-16T15:32:32.199Z,18.13
2018-12-16T15:34:59.842Z,17.83
2018-12-16T15:37:28.171Z,18.40
2018-12-16T15:39:55.761Z,17.03
2018-12-16T15:42:23.436Z,23.13
2018-12-16T15:44:51.116Z,25.03
2018-12-16T15:47:18.721Z,20.53
2018-12-16T15:49:46.290Z,18.40
2018-12-16T15:52:13.845Z,19.63
2018-12-16T15:54:41.438Z,22.03
2018-12-16T15:57:09.032Z,18.23
2018-12-16T15:59:36.601Z,24.50
2018-12-16T16:02:04.259Z,27.60
2018-12-16T16:04:31.832Z,16.60
2018-12-16T16:06:59.449Z,21.57
2018-12-16T16:09:27.110Z,22.97
2018-12-16T16:11:54.722Z,24.63
2018-12-16T16:14:22.422Z,25.53
2018-12-16T16:16:49.987Z,21.00
2018-12-16T16:19:17.583Z,22.67
2018-12-16T16:21:47.220Z,19.50
2018-12-16T16:24:14.790Z,22.87
2018-12-16T16:26:42.449Z,20.50
2018-12-16T16:29:10.058Z,25.03
2018-12-16T16:31:38.565Z,22.77
2018-12-16T16:34:06.523Z,24.43
2018-12-16T16:36:34.297Z,24.57
2018-12-16T16:39:01.866Z,21.30
2018-12-16T16:41:29.426Z,31.73
2018-12-16T16:43:56.991Z,30.73
2018-12-16T16:46:25.382Z,24.93
2018-12-16T16:48:53.279Z,26.43
2018-12-16T16:51:20.838Z,27.43
2018-12-16T16:53:48.390Z,23.40
2018-12-16T16:56:22.835Z,23.20
2018-12-16T16:58:46.581Z,29.87
2018-12-16T17:01:14.756Z,34.33
2018-12-16T17:03:42.788Z,38.87
2018-12-16T17:06:10.378Z,34.30
2018-12-16T17:08:38.301Z,37.93
2018-12-16T17:11:06.103Z,38.87
2018-12-16T17:13:33.701Z,32.40
2018-12-16T17:16:01.288Z,36.20
2018-12-16T17:18:28.867Z,27.90
2018-12-16T17:20:56.867Z,28.20
2018-12-16T17:23:24.439Z,35.33
2018-12-16T17:25:52.030Z,30.20
2018-12-16T17:28:19.603Z,26.30
2018-12-16T17:30:47.206Z,24.97
2018-12-16T17:33:15.142Z,30.67
2018-12-16T17:35:42.761Z,29.17
2018-12-16T17:38:10.361Z,26.07
2018-12-16T17:40:37.946Z,29.37
2018-12-16T17:43:05.693Z,30.03
2018-12-16T17:45:33.525Z,32.50
2018-12-16T17:48:01.109Z,24.90
2018-12-16T17:50:28.837Z,22.67
2018-12-16T17:52:56.577Z,26.23
2018-12-16T17:55:24.906Z,24.97
2018-12-16T17:57:52.508Z,30.60
2018-12-16T18:00:20.338Z,31.17
2018-12-16T18:02:47.926Z,35.80
2018-12-16T18:05:15.500Z,32.07
2018-12-16T18:07:43.092Z,46.43
2018-12-16T18:10:11.575Z,38.37
2018-12-16T18:12:39.182Z,32.77
2018-12-16T18:15:08.874Z,25.43
2018-12-16T18:17:36.515Z,21.57
2018-12-16T18:20:07.243Z,22.43
2018-12-16T18:22:34.827Z,25.30
2018-12-16T18:25:02.389Z,20.10
2018-12-16T18:27:30.113Z,17.07
2018-12-16T18:29:57.669Z,25.10
2018-12-16T18:32:25.442Z,21.73
2018-12-16T18:34:53.014Z,22.93
2018-12-16T18:37:21.100Z,22.70
2018-12-16T18:39:48.747Z,25.67
2018-12-16T18:42:16.803Z,24.53
2018-12-16T18:44:44.383Z,25.60
2018-12-16T18:47:11.932Z,24.10
2018-12-16T18:49:39.649Z,24.67
2018-12-16T18:52:07.264Z,22.50
2018-12-16T18:54:34.898Z,24.10
2018-12-16T18:57:07.215Z,22.97
2018-12-16T18:59:32.682Z,25.50
2018-12-16T19:02:00.246Z,27.77
2018-12-16T19:04:27.816Z,22.57
2018-12-16T19:06:56.653Z,26.23
2018-12-16T19:09:24.407Z,27.47
2018-12-16T19:11:51.967Z,28.07
2018-12-16T19:14:19.818Z,28.57
2018-12-16T19:16:47.667Z,31.60
2018-12-16T19:19:15.439Z,29.90
2018-12-16T19:21:43.145Z,33.50
2018-12-16T19:24:10.737Z,28.50
2018-12-16T19:26:38.312Z,29.57
2018-12-16T19:29:06.843Z,31.53
2018-12-16T19:31:35.872Z,27.73
2018-12-16T19:34:03.675Z,27.50
2018-12-16T19:36:31.251Z,26.17
2018-12-16T19:38:58.966Z,26.43
2018-12-16T19:41:26.636Z,21.27
2018-12-16T19:43:54.215Z,27.70
2018-12-16T19:46:21.975Z,31.07
2018-12-16T19:48:49.601Z,30.50
2018-12-16T19:51:17.425Z,31.70
2018-12-16T19:53:45.106Z,32.27
2018-12-16T19:56:13.419Z,27.57
2018-12-16T19:58:41.364Z,30.67
2018-12-16T20:01:08.999Z,25.03
2018-12-16T20:03:38.706Z,31.20
2018-12-16T20:06:12.387Z,25.83
2018-12-16T20:08:40.087Z,33.73
2018-12-16T20:11:08.443Z,27.10
2018-12-16T20:13:36.545Z,26.73
2018-12-16T20:16:04.337Z,30.50
2018-12-16T20:18:31.905Z,33.27
2018-12-16T20:20:59.501Z,29.70
2018-12-16T20:23:27.094Z,34.00
2018-12-16T20:25:54.738Z,44.73
2018-12-16T20:28:22.320Z,78.73
2018-12-16T20:30:49.983Z,69.17
2018-12-16T20:33:17.672Z,48.37
2018-12-16T20:35:45.251Z,35.40
2018-12-16T20:38:13.134Z,32.30
2018-12-16T20:40:41.051Z,29.87
2018-12-16T20:43:09.261Z,29.97
2018-12-16T20:45:36.851Z,33.93
2018-12-16T20:48:04.422Z,34.97
2018-12-16T20:50:32.072Z,26.03
2018-12-16T20:52:59.739Z,27.63
2018-12-16T20:55:27.525Z,31.70
2018-12-16T20:57:55.297Z,32.03
2018-12-16T21:00:22.926Z,28.70
2018-12-16T21:02:50.796Z,29.87
2018-12-16T21:05:18.365Z,25.73
2018-12-16T21:07:46.042Z,23.53
2018-12-16T21:10:13.633Z,41.00
2018-12-16T21:12:46.846Z,48.73
2018-12-16T21:15:20.365Z,32.73
2018-12-16T21:17:54.023Z,42.20
2018-12-16T21:20:21.652Z,50.27
2018-12-16T21:22:49.219Z,43.60
2018-12-16T21:25:16.792Z,41.13
2018-12-16T21:27:45.449Z,43.30
2018-12-16T21:30:13.895Z,41.60
2018-12-16T21:32:41.471Z,45.53
2018-12-16T21:35:09.035Z,41.27
2018-12-16T21:37:36.716Z,46.20
2018-12-16T21:40:05.404Z,41.07
2018-12-16T21:42:34.277Z,38.23
2018-12-16T21:45:02.226Z,41.87
2018-12-16T21:47:29.791Z,40.77
2018-12-16T21:49:57.909Z,34.93
2018-12-16T21:52:25.497Z,33.73
2018-12-16T21:54:53.111Z,33.47
2018-12-16T21:57:20.694Z,27.90
2018-12-16T21:59:48.861Z,27.40
2018-12-16T22:02:16.606Z,27.03
2018-12-16T22:04:45.012Z,27.13
2018-12-16T22:07:12.759Z,26.97
2018-12-16T22:09:40.323Z,27.47
2018-12-16T22:12:07.923Z,26.33
2018-12-16T22:14:35.524Z,29.43
2018-12-16T22:17:03.189Z,28.73
2018-12-16T22:19:31.486Z,31.30
2018-12-16T22:21:59.082Z,36.57
2018-12-16T22:24:27.128Z,30.87
2018-12-16T22:26:54.731Z,34.00
2018-12-16T22:29:22.367Z,38.20
2018-12-16T22:31:49.966Z,27.57
2018-12-16T22:34:17.542Z,25.90
2018-12-16T22:36:45.098Z,36.77
2018-12-16T22:39:12.737Z,32.53
2018-12-16T22:41:40.308Z,35.43
2018-12-16T22:44:08.034Z,57.07
2018-12-16T22:46:35.905Z,43.37
2018-12-16T22:49:03.511Z,37.83
2018-12-16T22:51:31.085Z,49.80
2018-12-16T22:53:58.704Z,37.70
2018-12-16T22:56:26.314Z,36.00
2018-12-16T22:58:54.727Z,44.20
2018-12-16T23:01:22.327Z,37.17
2018-12-16T23:03:50.111Z,36.40
2018-12-16T23:06:17.673Z,33.53
2018-12-16T23:08:46.315Z,29.10
2018-12-16T23:11:14.279Z,32.10
2018-12-16T23:13:41.881Z,26.37
2018-12-16T23:16:10.473Z,23.83
2018-12-16T23:18:38.961Z,23.77
2018-12-16T23:26:52.921Z,56.37
2018-12-16T23:29:20.547Z,70.50
2018-12-16T23:31:48.143Z,42.63
2018-12-16T23:34:15.952Z,45.77
2018-12-16T23:36:43.529Z,28.17
2018-12-16T23:39:11.102Z,29.93
2018-12-16T23:41:39.110Z,24.27
2018-12-16T23:44:08.193Z,20.93
2018-12-16T23:49:09.018Z,20.73
2018-12-16T23:51:36.569Z,24.27
2018-12-16T23:54:04.233Z,24.43
2018-12-16T23:56:31.910Z,20.50
2018-12-16T23:58:59.475Z,20.23
